createdAt,value
2023-03-22T00:01:15.776Z,7.70
2023-03-22T00:03:42.955Z,6.60
2023-03-22T00:06:10.347Z,6.55
2023-03-22T00:08:37.625Z,6.47
2023-03-22T00:11:05.558Z,7.25
2023-03-22T00:13:35.446Z,6.15
2023-03-22T00:16:02.917Z,6.60
2023-03-22T00:18:31.360Z,6.65
2023-03-22T00:20:59.592Z,6.88
2023-03-22T00:23:26.937Z,6.68
2023-03-22T00:25:53.824Z,6.50
2023-03-22T00:28:20.749Z,7.13
2023-03-22T00:30:59.561Z,6.85
2023-03-22T00:33:31.251Z,7.35
2023-03-22T00:36:07.082Z,8.73
2023-03-22T00:38:44.979Z,7.20
2023-03-22T00:41:13.691Z,8.65
2023-03-22T00:43:41.168Z,8.32
2023-03-22T00:46:08.348Z,8.48
2023-03-22T00:48:35.414Z,9.52
2023-03-22T00:51:02.326Z,8.60
2023-03-22T00:53:33.060Z,10.13
2023-03-22T00:56:00.356Z,10.65
2023-03-22T00:58:30.249Z,11.48
2023-03-22T01:00:57.081Z,10.65
2023-03-22T01:03:24.757Z,11.43
2023-03-22T01:05:56.761Z,11.75
2023-03-22T01:08:24.569Z,10.85
2023-03-22T01:10:51.755Z,11.00
2023-03-22T01:13:18.734Z,11.13
2023-03-22T01:15:47.878Z,11.40
2023-03-22T01:18:15.292Z,10.38
2023-03-22T01:20:42.224Z,10.82
2023-03-22T01:23:09.205Z,11.15
2023-03-22T01:25:36.217Z,10.32
2023-03-22T01:28:02.941Z,11.18
2023-03-22T01:30:30.607Z,9.23
2023-03-22T01:32:57.436Z,10.07
2023-03-22T01:35:24.401Z,10.55
2023-03-22T01:37:51.357Z,10.50
2023-03-22T01:40:19.712Z,11.27
2023-03-22T01:42:47.276Z,10.90
2023-03-22T01:45:42.326Z,12.32
2023-03-22T01:48:34.616Z,13.02
2023-03-22T01:51:11.968Z,12.73
2023-03-22T01:54:03.629Z,11.95
2023-03-22T01:56:34.734Z,12.82
2023-03-22T01:59:03.093Z,12.32
2023-03-22T02:01:47.073Z,13.55
2023-03-22T02:04:23.449Z,13.38
2023-03-22T02:06:54.825Z,13.07
2023-03-22T02:09:23.156Z,13.77
2023-03-22T02:12:08.313Z,13.02
2023-03-22T02:15:06.895Z,13.35
2023-03-22T02:18:11.604Z,14.95
2023-03-22T02:21:06.259Z,15.20
2023-03-22T02:24:23.801Z,14.88
2023-03-22T02:26:59.724Z,14.80
2023-03-22T02:29:33.107Z,15.07
2023-03-22T02:32:24.513Z,15.10
2023-03-22T02:35:14.368Z,14.77
2023-03-22T02:37:44.267Z,15.82
2023-03-22T02:40:38.900Z,14.77
2023-03-22T02:43:15.495Z,15.23
2023-03-22T02:46:11.860Z,15.48
2023-03-22T02:49:16.663Z,14.70
2023-03-22T02:52:02.227Z,14.85
2023-03-22T02:54:37.327Z,14.43
2023-03-22T02:57:14.278Z,16.13
2023-03-22T02:59:42.771Z,14.85
2023-03-22T03:02:14.300Z,14.02
2023-03-22T03:04:46.380Z,15.13
2023-03-22T03:07:19.291Z,14.23
2023-03-22T03:09:48.118Z,14.63
2023-03-22T03:12:20.283Z,12.45
2023-03-22T03:14:47.762Z,12.43
2023-03-22T03:17:26.704Z,12.02
2023-03-22T03:20:13.790Z,12.02
2023-03-22T03:22:43.550Z,12.52
2023-03-22T03:25:18.350Z,12.50
2023-03-22T03:27:52.418Z,12.25
2023-03-22T03:30:35.375Z,11.90
2023-03-22T03:33:09.407Z,11.98
2023-03-22T03:36:03.616Z,12.43
2023-03-22T03:38:36.482Z,12.18
2023-03-22T03:41:09.897Z,11.75
2023-03-22T03:43:37.376Z,11.00
2023-03-22T03:46:04.923Z,12.05
2023-03-22T03:48:34.905Z,13.57
2023-03-22T03:51:03.090Z,12.10
2023-03-22T03:53:30.685Z,12.10
2023-03-22T03:55:57.821Z,12.73
2023-03-22T03:58:27.422Z,12.02
2023-03-22T04:00:54.401Z,13.57
2023-03-22T04:03:36.511Z,13.10
2023-03-22T04:06:11.923Z,12.55
2023-03-22T04:08:45.577Z,12.95
2023-03-22T04:11:14.807Z,14.13
2023-03-22T04:13:43.004Z,13.50
2023-03-22T04:16:15.041Z,14.77
2023-03-22T04:18:41.975Z,13.75
2023-03-22T04:21:11.867Z,13.38
2023-03-22T04:23:46.941Z,14.00
2023-03-22T04:26:14.461Z,14.73
2023-03-22T04:28:53.033Z,14.20
2023-03-22T04:31:20.310Z,13.73
2023-03-22T04:33:55.146Z,13.95
2023-03-22T04:36:42.001Z,13.70
2023-03-22T04:39:17.325Z,13.15
2023-03-22T04:41:53.356Z,14.35
2023-03-22T04:44:20.648Z,13.35
2023-03-22T04:46:50.314Z,12.05
2023-03-22T04:49:17.679Z,10.75
2023-03-22T04:51:44.500Z,10.75
2023-03-22T04:54:32.698Z,9.88
2023-03-22T04:57:01.010Z,9.23
2023-03-22T04:59:30.973Z,8.75
2023-03-22T05:01:59.363Z,8.95
2023-03-22T05:04:29.860Z,8.68
2023-03-22T05:09:43.807Z,9.00
2023-03-22T05:12:11.543Z,8.15
2023-03-22T05:14:58.588Z,8.30
2023-03-22T05:17:30.923Z,7.43
2023-03-22T05:20:00.768Z,8.20
2023-03-22T05:22:27.536Z,8.02
2023-03-22T05:24:55.428Z,7.53
2023-03-22T05:27:31.776Z,7.80
2023-03-22T05:30:17.653Z,8.00
2023-03-22T05:32:59.824Z,8.20
2023-03-22T05:35:27.937Z,8.02
2023-03-22T05:38:00.139Z,8.45
2023-03-22T05:40:31.755Z,8.65
2023-03-22T05:42:58.734Z,8.27
2023-03-22T05:45:27.618Z,9.85
2023-03-22T05:48:12.724Z,8.82
2023-03-22T05:50:41.111Z,9.90
2023-03-22T05:53:08.620Z,9.98
2023-03-22T05:56:01.961Z,9.93
2023-03-22T05:58:33.959Z,9.45
2023-03-22T06:01:16.483Z,10.27
2023-03-22T06:03:46.205Z,9.73
2023-03-22T06:06:21.052Z,9.90
2023-03-22T06:09:10.414Z,9.38
2023-03-22T06:11:43.077Z,11.20
2023-03-22T06:14:10.025Z,10.95
2023-03-22T06:17:02.941Z,11.05
2023-03-22T06:19:34.616Z,11.65
2023-03-22T06:22:04.343Z,12.80
2023-03-22T06:24:33.960Z,11.85
2023-03-22T06:27:03.116Z,13.13
2023-03-22T06:29:30.997Z,13.45
2023-03-22T06:32:01.570Z,13.32
2023-03-22T06:34:31.486Z,14.70
2023-03-22T06:36:58.534Z,17.08
2023-03-22T06:39:33.692Z,16.70
2023-03-22T06:42:00.512Z,18.13
2023-03-22T06:44:28.668Z,15.77
2023-03-22T06:47:18.321Z,16.45
2023-03-22T06:49:45.251Z,16.90
2023-03-22T06:52:18.664Z,16.98
2023-03-22T06:54:45.452Z,16.90
2023-03-22T06:57:12.400Z,17.00
2023-03-22T06:59:39.452Z,17.52
2023-03-22T07:02:06.408Z,17.30
2023-03-22T07:04:34.314Z,17.52
2023-03-22T07:07:01.100Z,17.20
2023-03-22T07:09:28.269Z,15.82
2023-03-22T07:11:58.568Z,13.80
2023-03-22T07:14:26.749Z,15.18
2023-03-22T07:17:08.625Z,13.75
2023-03-22T07:19:36.924Z,14.52
2023-03-22T07:22:08.168Z,13.77
2023-03-22T07:24:47.284Z,13.52
2023-03-22T07:27:23.150Z,13.60
2023-03-22T07:29:50.375Z,13.35
2023-03-22T07:32:17.272Z,13.02
2023-03-22T07:35:05.563Z,13.20
2023-03-22T07:37:32.342Z,13.35
2023-03-22T07:40:01.849Z,13.52
2023-03-22T07:42:31.744Z,13.18
2023-03-22T07:45:37.088Z,14.27
2023-03-22T07:48:23.646Z,15.27
2023-03-22T07:51:07.849Z,15.18
2023-03-22T07:53:36.709Z,13.80
2023-03-22T07:56:04.834Z,13.73
2023-03-22T07:58:31.747Z,15.30
2023-03-22T08:01:03.557Z,13.70
2023-03-22T08:03:51.162Z,13.30
2023-03-22T08:06:33.333Z,15.18
2023-03-22T08:09:01.600Z,14.48
2023-03-22T08:11:30.092Z,13.98
2023-03-22T08:13:58.994Z,13.65
2023-03-22T08:16:25.926Z,14.77
2023-03-22T08:18:52.949Z,13.73
2023-03-22T08:21:21.669Z,14.07
2023-03-22T08:23:52.894Z,15.43
2023-03-22T08:26:34.851Z,14.82
2023-03-22T08:29:14.662Z,14.63
2023-03-22T08:31:47.252Z,14.57
2023-03-22T08:34:14.191Z,14.43
2023-03-22T08:36:41.643Z,14.23
2023-03-22T08:39:09.801Z,13.85
2023-03-22T08:41:55.101Z,13.10
2023-03-22T08:44:24.585Z,13.63
2023-03-22T08:46:51.616Z,12.77
2023-03-22T08:49:18.493Z,12.43
2023-03-22T08:51:55.184Z,12.10
2023-03-22T08:54:48.468Z,13.23
2023-03-22T08:57:33.886Z,13.45
2023-03-22T09:00:45.778Z,12.35
2023-03-22T09:03:28.316Z,11.98
2023-03-22T09:05:55.178Z,11.27
2023-03-22T09:08:22.120Z,11.80
2023-03-22T09:10:55.856Z,11.38
2023-03-22T09:13:23.232Z,11.45
2023-03-22T09:15:58.387Z,11.10
2023-03-22T09:18:30.905Z,11.63
2023-03-22T09:21:01.043Z,11.75
2023-03-22T09:23:38.018Z,11.82
2023-03-22T09:26:08.342Z,12.13
2023-03-22T09:28:36.763Z,11.55
2023-03-22T09:31:08.295Z,12.85
2023-03-22T09:33:36.547Z,12.65
2023-03-22T09:36:04.311Z,11.77
2023-03-22T09:38:33.633Z,11.63
2023-03-22T09:41:07.548Z,11.93
2023-03-22T09:43:39.438Z,11.82
2023-03-22T09:46:18.087Z,12.17
2023-03-22T09:48:49.463Z,11.52
2023-03-22T09:51:40.079Z,12.00
2023-03-22T09:54:22.197Z,11.80
2023-03-22T09:57:31.877Z,12.30
2023-03-22T10:00:20.952Z,12.00
2023-03-22T10:03:17.196Z,12.38
2023-03-22T10:06:08.145Z,13.27
2023-03-22T10:09:02.112Z,13.13
2023-03-22T10:12:05.495Z,11.48
2023-03-22T10:14:38.705Z,11.07
2023-03-22T10:17:16.654Z,10.75
2023-03-22T10:20:28.706Z,11.00
2023-03-22T10:22:57.708Z,10.20
2023-03-22T10:25:36.765Z,9.27
2023-03-22T10:28:30.093Z,9.80
2023-03-22T10:30:59.007Z,9.95
2023-03-22T10:33:39.429Z,9.98
2023-03-22T10:36:15.257Z,10.65
2023-03-22T10:38:53.157Z,10.50
2023-03-22T10:41:22.096Z,9.98
2023-03-22T10:43:52.515Z,9.27
2023-03-22T10:46:26.458Z,10.40
2023-03-22T10:49:02.365Z,10.52
2023-03-22T10:51:37.303Z,10.90
2023-03-22T10:54:05.750Z,10.63
2023-03-22T10:56:34.598Z,10.60
2023-03-22T10:59:01.470Z,10.95
2023-03-22T11:01:34.085Z,11.43
2023-03-22T11:04:09.285Z,11.23
2023-03-22T11:06:53.344Z,11.15
2023-03-22T11:09:24.361Z,12.05
2023-03-22T11:11:59.138Z,10.93
2023-03-22T11:14:37.262Z,11.57
2023-03-22T11:17:06.658Z,12.15
2023-03-22T11:19:55.349Z,10.15
2023-03-22T11:22:44.344Z,10.65
2023-03-22T11:25:17.227Z,10.90
2023-03-22T11:27:56.399Z,10.68
2023-03-22T11:30:28.879Z,10.23
2023-03-22T11:33:18.550Z,11.80
2023-03-22T11:35:47.992Z,11.50
2023-03-22T11:38:31.329Z,11.70
2023-03-22T11:43:40.889Z,10.20
2023-03-22T11:46:11.066Z,9.02
2023-03-22T11:48:40.888Z,8.23
2023-03-22T11:51:14.087Z,7.55
2023-03-22T11:53:47.036Z,7.60
2023-03-22T11:59:05.144Z,7.57
2023-03-22T12:01:49.132Z,8.10
2023-03-22T12:04:22.822Z,8.18
2023-03-22T12:06:52.715Z,7.90
2023-03-22T12:09:32.070Z,7.93
2023-03-22T12:12:02.381Z,6.28
2023-03-22T12:14:52.614Z,5.97
2023-03-22T12:17:50.385Z,6.40
2023-03-22T12:20:23.695Z,6.43
2023-03-22T12:22:55.336Z,6.88
2023-03-22T12:25:35.032Z,6.32
2023-03-22T12:28:14.339Z,7.45
2023-03-22T12:30:48.030Z,6.45
2023-03-22T12:33:17.803Z,7.47
2023-03-22T12:35:46.692Z,7.50
2023-03-22T12:38:48.796Z,7.25
2023-03-22T12:41:22.048Z,6.68
2023-03-22T12:44:01.500Z,6.90
2023-03-22T12:46:35.714Z,6.68
2023-03-22T12:49:33.135Z,7.50
2023-03-22T12:52:12.165Z,7.60
2023-03-22T12:54:39.902Z,5.82
2023-03-22T12:57:08.116Z,4.18
2023-03-22T12:59:36.160Z,3.80
2023-03-22T13:02:19.658Z,5.57
2023-03-22T13:04:56.892Z,5.68
2023-03-22T13:07:47.171Z,5.15
2023-03-22T13:10:47.277Z,4.60
2023-03-22T13:13:17.330Z,4.70
2023-03-22T13:16:01.574Z,3.92
2023-03-22T13:18:38.403Z,4.47
2023-03-22T13:21:19.301Z,3.83
2023-03-22T13:24:15.539Z,4.05
2023-03-22T13:26:54.384Z,3.47
2023-03-22T13:29:54.144Z,3.30
2023-03-22T13:32:33.619Z,2.65
2023-03-22T13:35:01.679Z,3.03
2023-03-22T13:37:46.074Z,3.17
2023-03-22T13:40:33.029Z,3.05
2023-03-22T13:43:17.448Z,4.18
2023-03-22T13:46:11.846Z,3.65
2023-03-22T13:48:52.071Z,4.90
2023-03-22T13:51:21.972Z,3.50
2023-03-22T13:54:23.973Z,3.13
2023-03-22T13:57:00.215Z,4.95
2023-03-22T13:59:34.025Z,4.07
2023-03-22T14:02:27.639Z,4.10
2023-03-22T14:05:18.477Z,4.75
2023-03-22T14:07:56.355Z,4.30
2023-03-22T14:10:44.741Z,4.47
2023-03-22T14:13:28.786Z,4.93
2023-03-22T14:15:59.930Z,5.10
2023-03-22T14:18:31.897Z,4.68
2023-03-22T14:21:03.457Z,4.03
